Time;durP1;ratioP1;P1;durP2;ratioP2;P2;SDS_P1;SDS_P2;PMS_P1;PMS_P2;Temp;Humidity;BMP_temperature;BMP_pressure;BME280_temperature;BME280_humidity;BME280_pressure;Samples;Min_cycle;Max_cycle;Signal;HPM_P1;HPM_P2
2021/04/29 00:07:30;;;;;;;13.98;11.88;;;13.00;81.70;;;;;;5067315;22;20238;-84
2021/04/29 00:09:57;;;;;;;15.82;12.02;;;12.90;83.40;;;;;;5067574;28;20210;-84
2021/04/29 00:12:24;;;;;;;17.48;12.82;;;12.90;84.70;;;;;;5074854;28;20191;-79
2021/04/29 00:14:50;;;;;;;15.63;12.05;;;12.90;85.60;;;;;;5079135;28;20210;-78
2021/04/29 00:17:17;;;;;;;12.43;11.20;;;12.80;87.60;;;;;;5079169;28;20191;-80
2021/04/29 00:19:43;;;;;;;13.48;11.00;;;12.80;89.80;;;;;;5078787;28;20205;-79
2021/04/29 00:22:10;;;;;;;13.27;10.80;;;12.70;90.40;;;;;;5078761;28;20181;-79
2021/04/29 00:24:38;;;;;;;14.70;12.30;;;12.60;91.10;;;;;;5078796;28;20228;-81
2021/04/29 00:27:05;;;;;;;13.05;11.75;;;12.60;91.60;;;;;;5072308;28;20296;-86
2021/04/29 00:29:32;;;;;;;13.48;11.90;;;12.60;92.20;;;;;;5067908;28;20261;-82
2021/04/29 00:31:58;;;;;;;13.88;12.48;;;12.50;92.60;;;;;;5068901;28;20203;-84
2021/04/29 00:34:25;;;;;;;12.85;11.52;;;12.50;93.10;;;;;;5068421;28;20210;-83
2021/04/29 00:36:52;;;;;;;16.50;13.95;;;12.50;93.40;;;;;;5065952;28;20210;-82
2021/04/29 00:39:19;;;;;;;14.15;12.75;;;12.60;93.60;;;;;;5068130;28;20233;-81
2021/04/29 00:41:47;;;;;;;14.88;13.07;;;12.50;94.00;;;;;;5066752;28;20202;-82
2021/04/29 00:44:13;;;;;;;13.50;12.07;;;12.50;94.20;;;;;;5078232;28;20199;-80
2021/04/29 00:46:40;;;;;;;15.07;13.43;;;12.50;94.70;;;;;;5078740;28;20220;-80
2021/04/29 00:49:07;;;;;;;13.45;12.15;;;12.50;94.90;;;;;;5078921;28;20203;-78
2021/04/29 00:51:33;;;;;;;13.70;12.27;;;12.40;94.90;;;;;;5078921;28;20208;-81
2021/04/29 00:54:00;;;;;;;14.63;13.20;;;12.40;95.20;;;;;;5070946;28;20240;-82
2021/04/29 00:56:26;;;;;;;13.80;12.40;;;12.40;95.40;;;;;;5067053;28;20222;-84
2021/04/29 00:58:55;;;;;;;15.02;13.52;;;12.40;95.60;;;;;;5058457;28;20234;-82
2021/04/29 01:01:25;;;;;;;17.75;14.73;;;12.30;95.90;;;;;;5065247;28;20191;-83
2021/04/29 01:03:56;;;;;;;17.10;13.50;;;12.30;96.10;;;;;;5068163;28;20207;-80
2021/04/29 01:06:30;;;;;;;19.20;14.68;;;12.20;96.60;;;;;;5058507;28;20204;-83
2021/04/29 01:09:01;;;;;;;14.80;13.27;;;12.20;97.00;;;;;;5066242;28;20225;-84
2021/04/29 01:11:32;;;;;;;16.02;14.15;;;12.20;97.50;;;;;;5067222;28;20200;-86
2021/04/29 01:14:03;;;;;;;17.17;13.00;;;12.20;97.70;;;;;;5067233;28;20198;-85
2021/04/29 01:16:31;;;;;;;15.95;13.18;;;12.20;98.00;;;;;;5066702;28;20213;-82
2021/04/29 01:18:59;;;;;;;16.38;12.65;;;12.20;98.40;;;;;;5066332;28;20229;-85
2021/04/29 01:21:27;;;;;;;13.48;12.18;;;12.20;98.50;;;;;;5067505;28;20213;-85
2021/04/29 01:24:02;;;;;;;20.25;14.18;;;12.20;99.10;;;;;;5061107;28;20619;-81
2021/04/29 01:26:55;;;;;;;15.23;13.82;;;12.10;99.30;;;;;;5057511;28;20227;-84
2021/04/29 01:29:24;;;;;;;14.75;13.23;;;12.10;99.60;;;;;;5055135;28;20228;-79
2021/04/29 01:31:53;;;;;;;13.35;12.07;;;12.10;99.70;;;;;;5077337;28;20203;-81
2021/04/29 01:34:21;;;;;;;13.57;12.18;;;12.10;99.90;;;;;;5077138;28;20172;-79
2021/04/29 01:36:50;;;;;;;16.75;13.30;;;12.10;99.90;;;;;;5067679;28;20207;-84
2021/04/29 01:39:19;;;;;;;15.15;12.10;;;12.20;99.90;;;;;;5060564;28;20228;-83
2021/04/29 01:41:47;;;;;;;14.30;12.48;;;12.20;99.90;;;;;;5063683;28;20274;-85
2021/04/29 01:44:17;;;;;;;13.75;12.35;;;12.20;99.90;;;;;;5059617;28;20215;-82
2021/04/29 01:46:44;;;;;;;16.05;13.80;;;12.20;99.90;;;;;;5063019;28;20225;-81
2021/04/29 01:49:12;;;;;;;15.82;14.00;;;12.10;99.90;;;;;;5071513;28;20235;-80
2021/04/29 01:51:40;;;;;;;14.27;12.75;;;12.10;99.90;;;;;;5070371;28;20213;-82
2021/04/29 01:54:08;;;;;;;13.63;12.23;;;12.10;99.90;;;;;;5073336;28;20263;-84
2021/04/29 01:56:36;;;;;;;15.05;13.30;;;12.10;99.90;;;;;;5073132;28;20241;-81
2021/04/29 01:59:17;;;;;;;15.70;12.48;;;12.20;99.90;;;;;;5073598;28;20227;-80
2021/04/29 02:01:44;;;;;;;15.98;14.27;;;12.20;99.90;;;;;;5074214;28;20208;-81
2021/04/29 02:04:12;;;;;;;14.20;12.77;;;12.20;99.90;;;;;;5071625;28;20208;-79
2021/04/29 02:06:40;;;;;;;15.45;13.85;;;12.10;99.90;;;;;;5072053;28;20200;-80
2021/04/29 02:09:08;;;;;;;14.43;13.13;;;12.10;99.90;;;;;;5073423;28;20241;-81
2021/04/29 02:11:37;;;;;;;14.55;13.05;;;12.10;99.90;;;;;;5070780;28;20203;-81
2021/04/29 02:14:06;;;;;;;16.40;14.65;;;12.10;99.90;;;;;;5069624;28;20212;-82
2021/04/29 02:16:40;;;;;;;15.68;14.20;;;12.10;99.90;;;;;;5070144;28;20200;-83
2021/04/29 02:19:08;;;;;;;15.23;13.60;;;12.10;99.90;;;;;;5066033;28;20243;-82
2021/04/29 02:21:37;;;;;;;14.32;12.73;;;12.10;99.90;;;;;;5064372;28;20203;-85
2021/04/29 02:24:05;;;;;;;14.85;13.13;;;12.10;99.90;;;;;;5066170;28;20204;-84
2021/04/29 02:26:34;;;;;;;16.20;14.50;;;12.10;99.90;;;;;;5064953;28;20216;-82
2021/04/29 02:29:05;;;;;;;15.52;14.02;;;12.10;99.90;;;;;;5064670;28;20228;-83
2021/04/29 02:31:32;;;;;;;13.30;12.10;;;12.10;99.90;;;;;;5065042;28;20213;-85
2021/04/29 02:34:00;;;;;;;15.35;13.90;;;12.10;99.90;;;;;;5070572;28;20216;-82
2021/04/29 02:36:27;;;;;;;16.90;14.73;;;12.00;99.90;;;;;;5066060;28;20232;-85
2021/04/29 02:38:55;;;;;;;15.55;13.98;;;12.00;99.90;;;;;;5063805;28;20252;-82
2021/04/29 02:41:23;;;;;;;15.65;13.52;;;12.20;99.90;;;;;;5064451;28;20658;-85
2021/04/29 02:43:50;;;;;;;15.00;13.45;;;12.10;99.90;;;;;;5065468;28;20217;-84
2021/04/29 02:46:17;;;;;;;14.88;13.50;;;12.10;99.90;;;;;;5064883;28;20197;-82
2021/04/29 02:48:43;;;;;;;16.65;14.95;;;12.10;99.90;;;;;;5065502;28;20237;-84
2021/04/29 02:51:12;;;;;;;16.05;13.77;;;12.00;99.90;;;;;;5062474;28;20204;-84
2021/04/29 02:53:41;;;;;;;18.85;16.30;;;11.90;99.90;;;;;;5068309;28;20212;-83
2021/04/29 02:56:08;;;;;;;15.52;13.95;;;12.00;99.90;;;;;;5071175;28;20204;-83
2021/04/29 02:58:42;;;;;;;15.40;14.10;;;12.00;99.90;;;;;;5076809;28;20224;-79
2021/04/29 03:01:11;;;;;;;17.55;15.85;;;12.00;99.90;;;;;;5071463;28;20195;-82
2021/04/29 03:03:37;;;;;;;17.27;13.60;;;12.00;99.90;;;;;;5062667;28;20204;-83
2021/04/29 03:06:04;;;;;;;15.60;14.10;;;12.00;99.90;;;;;;5066819;28;20574;-84
2021/04/29 03:08:32;;;;;;;16.85;15.23;;;12.00;99.90;;;;;;5067281;28;20230;-82
2021/04/29 03:10:59;;;;;;;16.17;14.63;;;12.00;99.90;;;;;;5067387;28;20208;-85
2021/04/29 03:13:26;;;;;;;16.30;14.70;;;12.00;99.90;;;;;;5068292;28;20204;-84
2021/04/29 03:15:52;;;;;;;17.65;15.10;;;12.00;99.90;;;;;;5068376;28;20234;-82
2021/04/29 03:18:19;;;;;;;16.92;15.27;;;11.90;99.90;;;;;;5068183;28;20212;-81
2021/04/29 03:20:46;;;;;;;16.83;15.13;;;11.90;99.90;;;;;;5068127;28;20246;-84
2021/04/29 03:23:12;;;;;;;18.02;15.77;;;11.90;99.90;;;;;;5068884;28;20206;-80
2021/04/29 03:25:40;;;;;;;15.90;14.30;;;11.90;99.90;;;;;;5072807;28;20204;-85
2021/04/29 03:28:07;;;;;;;16.65;15.00;;;12.00;99.90;;;;;;5060442;28;20251;-78
2021/04/29 03:30:33;;;;;;;16.88;15.07;;;12.00;99.90;;;;;;5068935;28;20208;-81
2021/04/29 03:33:00;;;;;;;19.08;15.27;;;12.00;99.90;;;;;;5068422;28;20201;-82
2021/04/29 03:35:27;;;;;;;15.85;14.20;;;11.90;99.90;;;;;;5067138;28;20199;-84
2021/04/29 03:37:53;;;;;;;20.52;16.30;;;12.00;99.90;;;;;;5067697;28;20220;-81
2021/04/29 03:40:20;;;;;;;15.88;14.48;;;12.00;99.90;;;;;;5068204;28;20211;-81
2021/04/29 03:42:50;;;;;;;19.10;15.50;;;12.00;99.90;;;;;;5068883;28;20209;-81
2021/04/29 03:45:17;;;;;;;16.70;15.13;;;12.00;99.90;;;;;;5070111;28;20677;-81
2021/04/29 03:47:43;;;;;;;18.88;16.20;;;12.00;99.90;;;;;;5068529;28;20263;-83
2021/04/29 03:50:11;;;;;;;17.83;16.00;;;12.00;99.90;;;;;;5064914;28;20216;-82
2021/04/29 03:52:38;;;;;;;17.35;15.73;;;12.00;99.90;;;;;;5072359;28;20227;-83
2021/04/29 03:55:06;;;;;;;18.05;16.38;;;12.00;99.90;;;;;;5061351;28;20204;-83
2021/04/29 03:57:32;;;;;;;17.98;14.75;;;12.00;99.90;;;;;;5071578;28;20233;-80
2021/04/29 04:00:00;;;;;;;18.00;16.30;;;12.00;99.90;;;;;;5068899;28;20200;-83
2021/04/29 04:02:26;;;;;;;16.92;15.32;;;12.00;99.90;;;;;;5070057;28;20199;-82
2021/04/29 04:04:53;;;;;;;18.83;16.35;;;12.00;99.90;;;;;;5068644;28;20228;-82
2021/04/29 04:07:20;;;;;;;16.85;15.20;;;12.00;99.90;;;;;;5068392;28;20227;-84
2021/04/29 04:09:46;;;;;;;16.77;15.10;;;11.90;99.90;;;;;;5067015;28;20232;-80
2021/04/29 04:12:13;;;;;;;18.40;15.13;;;12.00;99.90;;;;;;5066917;28;20216;-81
2021/04/29 04:14:40;;;;;;;17.48;15.90;;;11.90;99.90;;;;;;5066577;28;20206;-83
2021/04/29 04:17:07;;;;;;;18.77;16.80;;;11.90;99.90;;;;;;5076585;28;20192;-77
2021/04/29 04:19:34;;;;;;;17.92;16.08;;;11.90;99.90;;;;;;5078404;28;20217;-78
2021/04/29 04:22:00;;;;;;;19.88;17.80;;;12.00;99.90;;;;;;5078950;28;20259;-77
2021/04/29 04:24:27;;;;;;;18.95;17.00;;;12.00;99.90;;;;;;5078675;28;20247;-76
2021/04/29 04:26:54;;;;;;;16.55;14.95;;;12.00;99.90;;;;;;5078580;28;20227;-78
2021/04/29 04:29:20;;;;;;;18.25;16.38;;;12.00;99.90;;;;;;5078534;28;20208;-77
2021/04/29 04:31:48;;;;;;;17.45;15.35;;;12.00;99.90;;;;;;5079028;28;20183;-81
2021/04/29 04:34:15;;;;;;;19.20;17.50;;;12.00;99.90;;;;;;5077782;28;20193;-80
2021/04/29 04:36:42;;;;;;;18.27;16.48;;;12.00;99.90;;;;;;5071383;28;20210;-83
2021/04/29 04:39:09;;;;;;;16.55;14.98;;;12.00;99.90;;;;;;5068117;28;20230;-85
2021/04/29 04:41:35;;;;;;;23.15;16.60;;;12.00;99.90;;;;;;5066563;28;20199;-80
2021/04/29 04:44:02;;;;;;;21.25;14.77;;;12.00;99.90;;;;;;5067030;28;20222;-82
2021/04/29 04:46:29;;;;;;;18.08;16.27;;;12.00;99.90;;;;;;5067549;28;20203;-84
2021/04/29 04:48:55;;;;;;;16.65;15.05;;;12.00;99.90;;;;;;5071707;28;20241;-83
2021/04/29 04:51:23;;;;;;;16.25;14.85;;;12.00;99.90;;;;;;5068397;28;20718;-83
2021/04/29 04:53:49;;;;;;;16.58;14.75;;;12.00;99.90;;;;;;5069658;28;20233;-81
2021/04/29 04:56:16;;;;;;;18.48;14.45;;;12.00;99.90;;;;;;5068488;28;20270;-82
2021/04/29 04:58:43;;;;;;;16.75;14.98;;;12.00;99.90;;;;;;5068986;28;20216;-82
2021/04/29 05:01:10;;;;;;;22.17;16.92;;;12.00;99.90;;;;;;5068192;28;20213;-85
2021/04/29 05:03:36;;;;;;;17.65;15.52;;;12.00;99.90;;;;;;5068730;28;20225;-81
2021/04/29 05:06:03;;;;;;;16.75;14.95;;;12.00;99.90;;;;;;5068429;28;20258;-83
2021/04/29 05:08:31;;;;;;;18.42;16.40;;;11.90;99.90;;;;;;5068926;28;20231;-84
2021/04/29 05:10:58;;;;;;;20.58;16.55;;;11.90;99.90;;;;;;5068395;28;20211;-83
2021/04/29 05:13:24;;;;;;;22.17;19.27;;;12.00;99.90;;;;;;5069384;28;20206;-81
2021/04/29 05:15:51;;;;;;;19.95;16.70;;;12.00;99.90;;;;;;5075000;28;20272;-79
2021/04/29 05:18:18;;;;;;;20.17;16.58;;;12.00;99.90;;;;;;5078004;28;20211;-81
2021/04/29 05:20:44;;;;;;;18.73;16.80;;;12.00;99.90;;;;;;5077687;28;20233;-77
2021/04/29 05:23:11;;;;;;;19.52;17.67;;;12.00;99.90;;;;;;5078383;28;20293;-78
2021/04/29 05:25:39;;;;;;;18.77;16.98;;;12.10;99.90;;;;;;5077698;28;20190;-80
2021/04/29 05:28:06;;;;;;;18.92;16.98;;;12.10;99.90;;;;;;5077864;28;20243;-79
2021/04/29 05:30:33;;;;;;;17.95;16.15;;;12.10;99.90;;;;;;5075884;28;20224;-78
2021/04/29 05:32:59;;;;;;;18.17;16.33;;;12.10;99.90;;;;;;5078526;28;20223;-78
2021/04/29 05:35:26;;;;;;;18.83;16.92;;;12.00;99.90;;;;;;5078221;28;20332;-78
2021/04/29 05:37:53;;;;;;;18.98;17.02;;;11.90;99.90;;;;;;5077984;28;20212;-78
2021/04/29 05:40:20;;;;;;;20.05;17.95;;;11.90;99.90;;;;;;5078052;28;20189;-79
2021/04/29 05:42:48;;;;;;;20.50;18.38;;;11.90;99.90;;;;;;5078453;28;20242;-78
2021/04/29 05:45:15;;;;;;;18.90;17.10;;;11.90;99.90;;;;;;5078032;28;20201;-78
2021/04/29 05:47:42;;;;;;;18.83;17.00;;;11.90;99.90;;;;;;5077685;28;20247;-77
2021/04/29 05:50:10;;;;;;;22.80;19.55;;;11.80;99.90;;;;;;5075123;28;20201;-82
2021/04/29 05:52:38;;;;;;;22.02;19.80;;;11.80;99.90;;;;;;5070465;28;20230;-81
2021/04/29 05:55:05;;;;;;;21.65;19.40;;;11.90;99.90;;;;;;5068146;28;20235;-83
2021/04/29 05:57:32;;;;;;;20.08;18.10;;;12.00;99.90;;;;;;5067673;28;20225;-85
2021/04/29 06:00:00;;;;;;;20.15;18.30;;;12.00;99.90;;;;;;5068106;28;20198;-83
2021/04/29 06:02:26;;;;;;;20.48;18.52;;;12.10;99.90;;;;;;5068199;28;20204;-83
2021/04/29 06:04:53;;;;;;;21.05;18.88;;;12.10;99.90;;;;;;5072814;28;20204;-84
2021/04/29 06:07:20;;;;;;;20.55;18.70;;;12.10;99.90;;;;;;5070434;28;20284;-83
2021/04/29 06:09:47;;;;;;;25.25;22.20;;;12.20;99.90;;;;;;5069920;28;20193;-83
2021/04/29 06:12:14;;;;;;;20.77;18.88;;;12.30;99.90;;;;;;5071356;28;20204;-79
2021/04/29 06:14:41;;;;;;;26.77;21.13;;;12.30;99.90;;;;;;5077055;28;20188;-78
2021/04/29 06:17:09;;;;;;;23.02;19.02;;;12.40;99.90;;;;;;5077447;28;20248;-81
2021/04/29 06:19:36;;;;;;;24.60;19.80;;;12.50;99.90;;;;;;5077303;28;20240;-79
2021/04/29 06:22:02;;;;;;;21.17;18.90;;;12.70;99.90;;;;;;5077676;28;20220;-85
2021/04/29 06:24:29;;;;;;;21.30;19.20;;;12.70;99.90;;;;;;5068844;28;20208;-86
2021/04/29 06:26:57;;;;;;;20.38;18.23;;;12.70;99.90;;;;;;5067865;28;20216;-85
2021/04/29 06:29:27;;;;;;;23.50;18.65;;;12.80;99.90;;;;;;5069546;28;20302;-86
2021/04/29 06:31:54;;;;;;;18.42;16.60;;;12.90;99.90;;;;;;5071375;28;20207;-85
2021/04/29 06:34:22;;;;;;;22.13;20.00;;;13.10;99.90;;;;;;5073810;28;20201;-86
2021/04/29 06:36:50;;;;;;;22.40;20.10;;;13.10;99.90;;;;;;5072177;28;20210;-87
2021/04/29 06:39:19;;;;;;;22.27;18.88;;;13.10;99.90;;;;;;5069983;28;20614;-85
2021/04/29 06:41:46;;;;;;;22.02;20.05;;;13.10;99.90;;;;;;5089939;28;20202;-84
2021/04/29 06:44:12;;;;;;;21.65;19.52;;;13.10;99.90;;;;;;5073493;28;20198;-84
2021/04/29 06:46:40;;;;;;;22.88;19.77;;;13.10;99.90;;;;;;5071948;28;20223;-83
2021/04/29 06:49:07;;;;;;;19.35;17.48;;;13.10;99.90;;;;;;5073434;28;20225;-85
2021/04/29 06:51:34;;;;;;;23.30;20.73;;;13.10;99.90;;;;;;5071891;28;20229;-84
2021/04/29 06:54:01;;;;;;;20.42;18.35;;;13.30;99.90;;;;;;5073429;28;20273;-83
2021/04/29 06:56:28;;;;;;;22.65;20.30;;;13.60;99.90;;;;;;5072725;28;20214;-83
2021/04/29 06:58:54;;;;;;;20.10;18.00;;;13.70;99.90;;;;;;5073096;28;20218;-85
2021/04/29 07:01:21;;;;;;;19.70;17.75;;;13.80;99.90;;;;;;5070609;28;20263;-84
2021/04/29 07:03:47;;;;;;;21.00;19.00;;;13.90;99.90;;;;;;5072840;28;20215;-83
2021/04/29 07:06:14;;;;;;;20.20;17.35;;;13.80;99.90;;;;;;5072433;28;20290;-83
2021/04/29 07:08:42;;;;;;;20.30;18.10;;;13.70;99.90;;;;;;5071397;28;20230;-83
2021/04/29 07:11:08;;;;;;;21.40;19.23;;;13.70;99.90;;;;;;5072686;28;20217;-83
2021/04/29 07:13:35;;;;;;;20.92;18.60;;;13.70;99.90;;;;;;5068042;28;20699;-82
2021/04/29 07:16:01;;;;;;;20.77;18.50;;;13.50;99.90;;;;;;5071459;28;20281;-83
2021/04/29 07:18:29;;;;;;;19.70;17.63;;;13.60;99.90;;;;;;5072151;28;20784;-84
2021/04/29 07:20:55;;;;;;;19.17;16.75;;;13.40;99.90;;;;;;5074724;28;20250;-84
2021/04/29 07:23:22;;;;;;;20.73;18.83;;;13.30;99.90;;;;;;5072181;28;20206;-82
2021/04/29 07:25:50;;;;;;;19.08;17.27;;;13.20;99.90;;;;;;5075357;28;20189;-82
2021/04/29 07:28:17;;;;;;;21.95;18.02;;;13.10;99.90;;;;;;5074578;28;20289;-80
2021/04/29 07:30:45;;;;;;;18.92;16.92;;;13.00;99.90;;;;;;5073677;28;20211;-82
2021/04/29 07:33:12;;;;;;;21.63;19.40;;;12.80;99.90;;;;;;5071504;28;20408;-84
2021/04/29 07:35:39;;;;;;;20.52;18.52;;;12.70;99.90;;;;;;5068168;28;20215;-83
2021/04/29 07:38:05;;;;;;;20.70;18.55;;;12.70;99.90;;;;;;5070343;28;20228;-83
2021/04/29 07:40:34;;;;;;;21.83;18.40;;;12.60;99.90;;;;;;5068496;28;20276;-82
2021/04/29 07:43:02;;;;;;;22.08;19.73;;;12.50;99.90;;;;;;5071503;28;20191;-83
2021/04/29 07:45:29;;;;;;;21.10;19.10;;;12.40;99.90;;;;;;5082281;28;20218;-81
2021/04/29 07:47:57;;;;;;;25.42;20.10;;;12.40;99.90;;;;;;5076839;28;20233;-80
2021/04/29 07:50:24;;;;;;;22.63;19.15;;;12.40;99.90;;;;;;5071012;28;20770;-83
2021/04/29 07:52:50;;;;;;;20.42;18.42;;;12.30;99.90;;;;;;5071262;28;20216;-82
2021/04/29 07:55:17;;;;;;;20.60;18.35;;;12.30;99.90;;;;;;5070720;28;20663;-83
2021/04/29 07:57:44;;;;;;;22.77;20.67;;;12.30;99.90;;;;;;5073886;28;20246;-84
2021/04/29 08:00:15;;;;;;;22.05;19.90;;;12.30;99.90;;;;;;5069244;28;21306;-83
2021/04/29 08:02:42;;;;;;;23.55;21.23;;;12.20;99.90;;;;;;5067240;28;20288;-85
2021/04/29 08:05:10;;;;;;;24.27;22.08;;;12.00;99.90;;;;;;5073346;28;20227;-81
2021/04/29 08:07:37;;;;;;;25.77;23.25;;;11.90;99.90;;;;;;5072438;28;20254;-84
2021/04/29 08:10:05;;;;;;;24.55;22.10;;;11.80;99.90;;;;;;5072283;28;20744;-83
2021/04/29 08:12:32;;;;;;;24.25;21.73;;;11.70;99.90;;;;;;5060242;28;20546;-83
2021/04/29 08:15:00;;;;;;;25.92;22.23;;;11.70;99.90;;;;;;5074406;28;20196;-79
2021/04/29 08:17:28;;;;;;;26.02;23.50;;;11.60;99.90;;;;;;5078355;28;20248;-81
2021/04/29 08:19:56;;;;;;;26.98;24.30;;;11.60;99.90;;;;;;5078040;28;20232;-80
2021/04/29 08:22:23;;;;;;;27.33;24.55;;;11.60;99.90;;;;;;5078591;28;20177;-79
2021/04/29 08:24:50;;;;;;;28.23;25.35;;;11.50;99.90;;;;;;5078388;28;20261;-79
2021/04/29 08:27:17;;;;;;;29.10;26.30;;;11.40;99.90;;;;;;5077360;28;20212;-79
2021/04/29 08:29:43;;;;;;;30.75;27.05;;;11.30;99.90;;;;;;5075410;28;20215;-84
2021/04/29 08:32:11;;;;;;;29.85;26.83;;;11.30;99.90;;;;;;5062051;28;20203;-84
2021/04/29 08:34:39;;;;;;;30.45;27.25;;;11.30;99.90;;;;;;5071292;28;20220;-84
2021/04/29 08:37:07;;;;;;;32.33;28.63;;;11.10;99.90;;;;;;5070117;28;20210;-83
2021/04/29 08:39:40;;;;;;;30.67;27.83;;;11.30;99.90;;;;;;5070675;28;20234;-84
2021/04/29 08:42:07;;;;;;;35.05;27.30;;;11.30;99.90;;;;;;5071644;28;20203;-83
2021/04/29 08:44:40;;;;;;;32.88;29.48;;;11.30;99.90;;;;;;5071667;28;20208;-85
2021/04/29 08:47:07;;;;;;;29.17;26.33;;;11.30;99.90;;;;;;5072129;28;20212;-83
2021/04/29 08:49:34;;;;;;;31.45;28.20;;;11.30;99.90;;;;;;5076522;28;20243;-84
2021/04/29 08:52:22;;;;;;;29.05;26.23;;;11.30;99.90;;;;;;5086927;28;20261;-84
2021/04/29 08:55:10;;;;;;;31.02;27.83;;;11.40;99.90;;;;;;5065592;28;20233;-80
2021/04/29 08:57:37;;;;;;;38.70;33.88;;;11.40;99.90;;;;;;5076690;28;20288;-83
2021/04/29 09:00:07;;;;;;;33.50;30.10;;;11.30;99.90;;;;;;5066087;28;20284;-83
2021/04/29 09:02:50;;;;;;;34.30;29.40;;;11.40;99.90;;;;;;5068312;28;20220;-81
2021/04/29 09:05:47;;;;;;;35.03;31.42;;;11.40;99.90;;;;;;5077137;28;20181;-79
2021/04/29 09:11:19;;;;;;;32.30;28.95;;;11.30;99.90;;;;;;5070768;28;20192;-81
2021/04/29 09:14:16;;;;;;;31.85;28.52;;;11.30;99.90;;;;;;5074532;28;20191;-82
2021/04/29 09:16:47;;;;;;;30.25;27.17;;;11.30;99.90;;;;;;5069490;28;20300;-81
2021/04/29 09:19:25;;;;;;;32.28;29.05;;;11.40;99.90;;;;;;5076665;28;20227;-82
2021/04/29 09:22:17;;;;;;;37.65;29.75;;;11.40;99.90;;;;;;5066372;28;20192;-81
2021/04/29 09:24:50;;;;;;;33.08;28.10;;;11.50;99.90;;;;;;5077267;28;20190;-81
2021/04/29 09:27:21;;;;;;;29.95;26.95;;;11.50;99.90;;;;;;5066072;28;20294;-84
2021/04/29 09:30:01;;;;;;;27.20;24.58;;;11.50;99.90;;;;;;5065530;28;20212;-84
2021/04/29 09:32:35;;;;;;;34.05;30.50;;;11.60;99.90;;;;;;5069950;28;20239;-84
2021/04/29 09:35:20;;;;;;;32.47;29.10;;;11.60;99.90;;;;;;5069268;28;20260;-85
2021/04/29 09:38:01;;;;;;;28.92;26.08;;;11.50;99.90;;;;;;5069852;28;20722;-84
2021/04/29 09:40:34;;;;;;;30.83;27.52;;;11.50;99.90;;;;;;5068012;28;20208;-84
2021/04/29 09:43:10;;;;;;;34.75;31.20;;;11.50;99.90;;;;;;5069380;28;20211;-85
2021/04/29 09:46:20;;;;;;;39.25;33.33;;;11.50;99.90;;;;;;5068939;28;20203;-81
2021/04/29 09:48:50;;;;;;;36.70;29.98;;;11.20;99.90;;;;;;5063186;28;20215;-84
2021/04/29 09:51:21;;;;;;;41.85;35.10;;;11.40;99.90;;;;;;5072264;28;20223;-83
2021/04/29 09:54:03;;;;;;;32.65;29.42;;;11.40;99.90;;;;;;5072875;28;20220;-84
2021/04/29 09:56:32;;;;;;;38.03;34.20;;;11.60;99.90;;;;;;5066854;28;20206;-83
2021/04/29 09:58:59;;;;;;;38.42;34.42;;;11.50;99.90;;;;;;5072603;28;20224;-83
2021/04/29 10:01:27;;;;;;;33.53;30.25;;;11.40;99.90;;;;;;5073379;28;20223;-83
2021/04/29 10:03:56;;;;;;;37.25;33.35;;;11.40;99.90;;;;;;5065416;28;20204;-83
2021/04/29 10:06:23;;;;;;;39.38;34.25;;;11.30;99.90;;;;;;5067985;28;20199;-84
2021/04/29 10:08:51;;;;;;;36.38;32.63;;;11.30;99.90;;;;;;5072220;28;20289;-85
2021/04/29 10:11:22;;;;;;;31.67;28.48;;;11.40;99.90;;;;;;5072405;28;20223;-84
2021/04/29 10:13:54;;;;;;;37.17;33.10;;;11.40;99.90;;;;;;5057544;28;20192;-85
2021/04/29 10:16:29;;;;;;;33.30;29.75;;;11.40;99.90;;;;;;5062505;28;20233;-84
2021/04/29 10:18:57;;;;;;;30.17;27.17;;;11.40;99.90;;;;;;5068377;28;20223;-84
2021/04/29 10:21:25;;;;;;;31.05;27.70;;;11.50;99.90;;;;;;5075773;28;20194;-85
2021/04/29 10:23:58;;;;;;;31.65;28.40;;;11.50;99.90;;;;;;5076266;28;20184;-85
2021/04/29 10:26:30;;;;;;;26.77;24.17;;;11.50;99.90;;;;;;5074107;28;20203;-81
2021/04/29 10:29:10;;;;;;;28.90;26.20;;;11.60;99.90;;;;;;5073984;28;20239;-84
2021/04/29 10:31:38;;;;;;;28.58;25.73;;;11.80;99.90;;;;;;5075181;28;20201;-80
2021/04/29 10:34:15;;;;;;;27.73;24.92;;;11.70;99.90;;;;;;5054698;28;20188;-82
2021/04/29 10:36:44;;;;;;;29.33;26.35;;;11.60;99.90;;;;;;5053857;28;20224;-84
2021/04/29 10:39:16;;;;;;;30.88;27.50;;;11.60;99.90;;;;;;5055417;28;21106;-85
2021/04/29 10:41:47;;;;;;;24.95;22.52;;;11.70;99.90;;;;;;5056074;28;20230;-82
2021/04/29 10:44:16;;;;;;;24.92;22.52;;;11.50;99.90;;;;;;5054439;28;20229;-85
2021/04/29 10:46:52;;;;;;;26.88;24.38;;;11.80;99.90;;;;;;5054506;28;20268;-82
2021/04/29 10:49:29;;;;;;;27.10;24.38;;;11.90;99.90;;;;;;5052465;28;20255;-83
2021/04/29 10:52:00;;;;;;;25.98;23.45;;;11.90;99.90;;;;;;5052393;28;20217;-84
2021/04/29 10:54:28;;;;;;;28.85;25.90;;;11.90;99.90;;;;;;5049346;28;20197;-82
2021/04/29 10:57:16;;;;;;;;;;;;;;;;;;;;;
2021/04/29 11:05:47;;;;;;;20.90;18.63;;;12.70;99.90;;;;;;5004660;28;20210;-84
2021/04/29 11:08:17;;;;;;;18.38;16.67;;;13.10;99.90;;;;;;5051791;28;20225;-85
2021/04/29 11:10:45;;;;;;;22.58;20.27;;;13.40;99.90;;;;;;5052785;28;20211;-84
2021/04/29 11:13:22;;;;;;;22.02;20.05;;;13.60;99.90;;;;;;5051453;28;20303;-85
2021/04/29 11:16:00;;;;;;;20.85;18.73;;;13.70;99.90;;;;;;5051951;28;20207;-84
2021/04/29 11:18:40;;;;;;;18.50;16.80;;;13.50;99.90;;;;;;5045605;28;20242;-81
2021/04/29 11:21:08;;;;;;;18.65;16.75;;;13.60;99.90;;;;;;5055859;28;20199;-82
2021/04/29 11:23:44;;;;;;;15.70;14.30;;;13.60;99.90;;;;;;5059613;28;20249;-82
2021/04/29 11:26:24;;;;;;;17.92;16.33;;;13.60;99.90;;;;;;5059464;28;20203;-80
2021/04/29 11:28:56;;;;;;;19.23;17.33;;;13.40;99.90;;;;;;5059246;28;20216;-82
2021/04/29 11:31:36;;;;;;;19.92;18.02;;;13.20;99.90;;;;;;5061288;28;20345;-83
2021/04/29 11:34:05;;;;;;;19.65;17.98;;;12.90;99.90;;;;;;5063539;28;20218;-84
2021/04/29 11:36:32;;;;;;;18.60;16.90;;;12.80;99.90;;;;;;5055308;28;20193;-82
2021/04/29 11:39:03;;;;;;;19.88;17.98;;;12.50;99.90;;;;;;5052919;28;20245;-85
2021/04/29 11:41:35;;;;;;;20.95;18.90;;;12.40;99.90;;;;;;5053679;28;20212;-84
2021/04/29 11:44:27;;;;;;;24.48;22.23;;;12.30;99.90;;;;;;5055329;28;20213;-83
2021/04/29 11:47:00;;;;;;;22.77;20.58;;;12.30;99.90;;;;;;5051434;28;20209;-84
2021/04/29 11:49:32;;;;;;;25.02;22.75;;;12.20;99.90;;;;;;5047592;28;20233;-84
2021/04/29 11:52:03;;;;;;;22.33;20.30;;;12.30;99.90;;;;;;5055171;28;20197;-83
2021/04/29 11:57:30;;;;;;;21.50;19.30;;;12.70;99.90;;;;;;5044059;28;20209;-84
2021/04/29 11:59:57;;;;;;;20.25;18.48;;;13.00;99.90;;;;;;5050817;28;20224;-84
2021/04/29 12:02:24;;;;;;;20.42;18.48;;;13.20;99.90;;;;;;5051794;28;20280;-82
2021/04/29 12:04:57;;;;;;;19.30;17.40;;;13.50;99.90;;;;;;5051563;28;20292;-81
2021/04/29 12:07:42;;;;;;;21.42;19.40;;;13.70;99.90;;;;;;5042075;28;20207;-84
2021/04/29 12:10:14;;;;;;;19.65;17.85;;;13.90;99.90;;;;;;5051543;28;20223;-82
2021/04/29 12:12:50;;;;;;;19.38;17.48;;;13.90;99.90;;;;;;5056827;28;20221;-81
2021/04/29 12:15:17;;;;;;;15.85;14.35;;;14.20;99.90;;;;;;5058063;28;20197;-83
2021/04/29 12:17:44;;;;;;;16.20;14.60;;;14.20;99.90;;;;;;5058518;28;20251;-81
2021/04/29 12:20:12;;;;;;;14.00;12.88;;;14.40;99.90;;;;;;5057698;28;20228;-81
2021/04/29 12:22:41;;;;;;;15.43;13.93;;;14.70;99.90;;;;;;5058115;28;20192;-82
2021/04/29 12:25:20;;;;;;;14.32;13.07;;;14.80;99.90;;;;;;5068067;28;20262;-82
2021/04/29 12:27:58;;;;;;;17.95;14.50;;;15.10;99.90;;;;;;5056626;28;20239;-80
2021/04/29 12:30:30;;;;;;;14.95;13.70;;;15.40;99.90;;;;;;5049417;28;20188;-81
2021/04/29 12:32:57;;;;;;;13.10;11.95;;;15.90;99.90;;;;;;5058817;28;20184;-79
2021/04/29 12:35:35;;;;;;;12.63;11.52;;;16.20;99.90;;;;;;5058872;28;20227;-79
2021/04/29 12:38:12;;;;;;;14.73;13.32;;;16.30;99.90;;;;;;5058161;28;20199;-79
2021/04/29 12:40:41;;;;;;;14.13;12.93;;;16.20;99.90;;;;;;5053033;28;20327;-79
2021/04/29 12:43:17;;;;;;;14.35;13.10;;;15.80;99.90;;;;;;5058811;28;20242;-79
2021/04/29 12:45:50;;;;;;;16.55;14.25;;;15.50;99.90;;;;;;5058886;28;20203;-80
2021/04/29 12:48:29;;;;;;;14.23;13.02;;;15.30;99.90;;;;;;5041537;28;20219;-81
2021/04/29 12:51:15;;;;;;;14.75;13.52;;;14.90;99.90;;;;;;5052420;28;20194;-79
2021/04/29 12:53:52;;;;;;;18.50;16.63;;;14.40;99.90;;;;;;5051224;28;20204;-80
2021/04/29 12:56:38;;;;;;;17.88;15.55;;;14.00;99.90;;;;;;5058047;28;20243;-80
2021/04/29 12:59:15;;;;;;;15.15;13.40;;;13.80;99.90;;;;;;5057241;28;20217;-83